Time;durP1;ratioP1;P1;durP2;ratioP2;P2;SDS_P1;SDS_P2;PMS_P1;PMS_P2;Temp;Humidity;BMP_temperature;BMP_pressure;BME280_temperature;BME280_humidity;BME280_pressure;Samples;Min_cycle;Max_cycle;Signal;HPM_P1;HPM_P2
2023/01/18 00:00:30;;;;;;;2.30;1.85;;;;;;;20.02;35.16;98953.34;5038736;28;20540;-73
2023/01/18 00:02:56;;;;;;;3.30;1.92;;;;;;;20.17;35.23;98983.59;5044516;28;20116;-73
2023/01/18 00:05:22;;;;;;;3.53;2.10;;;;;;;20.13;35.31;98986.91;5040811;28;20037;-73
2023/01/18 00:07:48;;;;;;;2.10;1.90;;;;;;;20.11;35.40;98989.78;5044184;28;20041;-73
2023/01/18 00:10:14;;;;;;;3.10;1.90;;;;;;;20.12;35.31;98983.47;5042495;28;20073;-73
2023/01/18 00:12:40;;;;;;;4.03;2.10;;;;;;;20.12;35.38;98998.53;5038603;28;20067;-73
2023/01/18 00:15:06;;;;;;;2.97;2.13;;;;;;;20.09;35.43;98997.09;5040934;28;20747;-73
2023/01/18 00:17:31;;;;;;;3.17;2.17;;;;;;;20.11;35.35;98997.72;5043140;28;20049;-73
2023/01/18 00:19:57;;;;;;;3.22;1.77;;;;;;;20.12;35.26;98995.88;5043281;28;20041;-73
2023/01/18 00:22:22;;;;;;;2.53;2.00;;;;;;;20.05;35.53;98998.59;5041373;28;20044;-73
2023/01/18 00:24:48;;;;;;;3.53;1.90;;;;;;;20.07;35.39;98993.88;5041568;28;20041;-73
2023/01/18 00:27:16;;;;;;;3.75;1.70;;;;;;;20.11;35.34;98989.00;5042418;28;20052;-73
2023/01/18 00:29:42;;;;;;;3.53;1.80;;;;;;;20.08;35.39;98995.50;5040630;28;20829;-73
2023/01/18 00:32:08;;;;;;;3.33;2.10;;;;;;;19.94;35.40;98974.81;5040286;28;20036;-73
2023/01/18 00:34:35;;;;;;;2.17;1.75;;;;;;;19.97;35.62;98996.28;5036729;28;20051;-73
2023/01/18 00:37:00;;;;;;;3.00;2.10;;;;;;;19.99;35.59;98993.41;5038342;28;20045;-73
2023/01/18 00:39:26;;;;;;;2.70;2.08;;;;;;;19.89;35.60;98981.53;5040115;28;20481;-73
2023/01/18 00:44:35;;;;;;;2.35;1.88;;;;;;;19.98;35.70;98992.59;5040197;28;20047;-73
2023/01/18 00:47:01;;;;;;;3.42;1.92;;;;;;;19.96;35.56;98997.31;5034199;28;20048;-73
2023/01/18 00:49:26;;;;;;;1.85;1.73;;;;;;;19.89;35.73;98994.75;5039820;28;20139;-73
2023/01/18 00:51:52;;;;;;;4.13;2.10;;;;;;;19.93;35.57;98989.84;5038566;28;20040;-73
2023/01/18 00:54:18;;;;;;;2.50;1.70;;;;;;;19.87;35.58;98978.31;5030412;28;20041;-73
2023/01/18 00:56:43;;;;;;;2.72;1.65;;;;;;;19.97;35.49;98990.19;5035318;28;20029;-73
2023/01/18 00:59:09;;;;;;;3.65;2.20;;;;;;;19.88;35.67;98984.41;5039283;28;20459;-73
2023/01/18 01:01:34;;;;;;;2.83;1.63;;;;;;;19.87;35.74;98990.72;5016586;28;20029;-73
2023/01/18 01:06:43;;;;;;;2.75;1.90;;;;;;;19.90;35.69;98990.28;5042094;28;20095;-73
2023/01/18 01:09:28;;;;;;;2.25;1.80;;;;;;;19.92;35.64;98991.66;5036163;28;20041;-73
2023/01/18 01:26:06;;;;;;;2.28;1.60;;;;;;;19.79;35.86;98996.31;5035007;28;20037;-73
2023/01/18 01:28:37;;;;;;;2.47;2.03;;;;;;;19.75;35.98;98998.63;5047972;28;20131;-73
2023/01/18 01:31:04;;;;;;;3.00;2.00;;;;;;;19.74;35.84;98994.34;5041318;28;20099;-73
2023/01/18 01:33:31;;;;;;;2.70;1.88;;;;;;;19.75;35.99;98997.78;5025107;28;20091;-73
2023/01/18 01:35:58;;;;;;;3.42;1.60;;;;;;;19.77;35.95;99007.13;5037145;28;20112;-73
2023/01/18 01:38:24;;;;;;;2.10;1.80;;;;;;;19.75;35.88;99009.19;5039524;28;20041;-73
2023/01/18 01:41:05;;;;;;;2.33;1.65;;;;;;;19.70;35.97;99009.03;5028157;28;20075;-73
2023/01/18 01:43:49;;;;;;;2.33;1.77;;;;;;;19.74;35.82;99015.47;5020698;28;20785;-73
2023/01/18 01:46:35;;;;;;;3.15;2.10;;;;;;;19.65;36.12;99016.00;5037517;28;20045;-73
2023/01/18 01:49:14;;;;;;;3.33;1.98;;;;;;;19.66;36.08;99020.25;5042745;28;20132;-73
2023/01/18 01:51:46;;;;;;;2.63;2.20;;;;;;;19.65;35.91;99016.81;5042933;28;20044;-73
2023/01/18 01:54:24;;;;;;;2.40;1.77;;;;;;;19.73;35.97;99019.13;5040475;28;20466;-73
2023/01/18 01:56:54;;;;;;;2.40;1.75;;;;;;;19.64;36.08;99031.03;5046534;28;20124;-73
2023/01/18 01:59:20;;;;;;;2.28;1.85;;;;;;;19.73;35.98;99024.41;5046992;28;20053;-73
2023/01/18 02:01:46;;;;;;;2.25;1.90;;;;;;;19.67;35.94;99017.38;5029880;28;20055;-73
2023/01/18 02:04:12;;;;;;;2.83;1.88;;;;;;;19.76;35.83;99015.28;5056482;28;20480;-73
2023/01/18 02:06:38;;;;;;;2.80;2.00;;;;;;;19.68;36.10;99015.56;5051245;28;20490;-73
2023/01/18 02:09:11;;;;;;;2.03;1.60;;;;;;;19.68;36.03;99019.00;5038079;28;20044;-73
2023/01/18 02:11:37;;;;;;;2.67;1.83;;;;;;;19.66;35.99;99015.78;5045935;28;20045;-73
2023/01/18 02:14:07;;;;;;;2.85;1.90;;;;;;;19.60;35.90;99006.13;5027575;28;20045;-73
2023/01/18 02:16:51;;;;;;;2.65;1.80;;;;;;;19.63;36.06;99026.78;5042267;28;20128;-73
2023/01/18 02:19:54;;;;;;;2.03;1.77;;;;;;;19.61;36.02;99016.44;5042646;28;20048;-73
2023/01/18 02:22:25;;;;;;;2.17;1.75;;;;;;;19.65;36.05;99027.38;5036758;28;20079;-73
2023/01/18 02:24:57;;;;;;;1.80;1.40;;;;;;;19.66;36.04;99026.34;5042903;28;20040;-73
2023/01/18 02:27:34;;;;;;;2.70;1.85;;;;;;;19.64;35.95;99032.88;5046482;28;20828;-73
2023/01/18 02:30:14;;;;;;;3.58;1.90;;;;;;;19.58;36.13;99037.22;5041624;28;20037;-73
2023/01/18 02:32:52;;;;;;;2.20;2.00;;;;;;;19.55;36.17;99037.63;5039565;28;20518;-73
2023/01/18 02:35:43;;;;;;;2.47;2.00;;;;;;;19.61;36.02;99049.97;5040144;28;20651;-73
2023/01/18 02:38:13;;;;;;;2.30;1.67;;;;;;;19.54;36.05;99047.38;5045433;28;20044;-73
2023/01/18 02:41:07;;;;;;;3.55;2.10;;;;;;;19.55;36.21;99046.34;5044486;28;20033;-73
2023/01/18 02:46:32;;;;;;;3.03;2.17;;;;;;;19.58;36.04;99039.84;5027919;28;20044;-73
2023/01/18 02:49:01;;;;;;;2.08;1.73;;;;;;;19.61;35.88;99045.50;5034415;28;20057;-73
2023/01/18 02:51:26;;;;;;;2.25;1.70;;;;;;;19.59;36.07;99037.00;5042663;28;20072;-73
2023/01/18 02:53:52;;;;;;;2.28;1.90;;;;;;;19.68;35.77;99042.78;5040772;28;20033;-73
2023/01/18 02:56:41;;;;;;;2.75;1.73;;;;;;;19.55;36.02;99042.91;5041721;28;20048;-73
2023/01/18 02:59:09;;;;;;;2.55;2.25;;;;;;;19.54;36.10;99051.88;5039629;28;20047;-73
2023/01/18 03:01:51;;;;;;;2.88;2.00;;;;;;;19.57;36.19;99049.63;5043724;28;20076;-73
2023/01/18 03:04:26;;;;;;;2.58;1.70;;;;;;;19.54;36.08;99054.50;5041415;28;20495;-73
2023/01/18 03:07:00;;;;;;;2.53;2.00;;;;;;;19.53;36.19;99056.31;5038372;28;20713;-74
2023/01/18 03:09:26;;;;;;;2.80;1.88;;;;;;;19.57;36.15;99049.63;5045512;28;20033;-73
2023/01/18 03:12:09;;;;;;;2.17;1.98;;;;;;;19.52;36.17;99046.78;5043766;28;20060;-73
2023/01/18 03:14:55;;;;;;;2.60;1.90;;;;;;;19.50;36.08;99046.19;5043806;28;20119;-73
2023/01/18 03:17:35;;;;;;;2.53;1.80;;;;;;;19.37;36.31;99029.69;5021450;28;20091;-73
2023/01/18 03:20:07;;;;;;;2.15;1.65;;;;;;;19.58;36.06;99051.22;5043948;28;20051;-73
2023/01/18 03:25:35;;;;;;;3.10;2.10;;;;;;;19.42;36.23;99035.13;5039815;28;20036;-73
2023/01/18 03:33:46;;;;;;;;;;;;;;;19.39;36.36;99049.56;5033763;28;20055;-73
2023/01/18 03:36:22;;;;;;;2.22;1.70;;;;;;;19.42;36.24;99051.78;5038555;28;19917;-73
2023/01/18 03:38:58;;;;;;;3.25;2.30;;;;;;;19.40;36.33;99045.09;5038472;28;20634;-73
2023/01/18 03:41:29;;;;;;;2.50;2.00;;;;;;;19.33;36.33;99042.53;5042176;28;20064;-73
2023/01/18 03:43:59;;;;;;;3.13;2.10;;;;;;;19.35;36.26;99056.28;5040124;28;20044;-74
2023/01/18 03:46:27;;;;;;;;;;;;;;;19.35;36.23;99058.94;5041104;28;20051;-73
2023/01/18 03:48:52;;;;;;;2.47;2.10;;;;;;;19.37;36.05;99054.25;5042761;28;19987;-73
2023/01/18 03:51:28;;;;;;;3.15;2.10;;;;;;;19.34;36.21;99052.03;5038716;28;20033;-73
2023/01/18 03:54:26;;;;;;;1.80;1.65;;;;;;;19.37;36.34;99061.34;5038896;28;20152;-73
2023/01/18 03:57:21;;;;;;;1.80;1.60;;;;;;;19.38;36.23;99062.97;5038934;28;20063;-73
2023/01/18 03:59:47;;;;;;;2.53;1.90;;;;;;;19.36;36.22;99065.81;5026357;28;20044;-73
2023/01/18 04:02:16;;;;;;;2.20;1.85;;;;;;;19.38;36.17;99073.53;5040489;28;20044;-73
2023/01/18 04:04:42;;;;;;;1.90;1.70;;;;;;;19.23;36.39;99064.16;5037670;28;20036;-73
2023/01/18 04:07:07;;;;;;;3.00;2.10;;;;;;;19.27;36.42;99070.59;5040517;28;20036;-73
2023/01/18 04:09:33;;;;;;;2.60;1.77;;;;;;;19.32;36.35;99075.22;5038174;28;20434;-73
2023/01/18 04:11:58;;;;;;;2.33;1.85;;;;;;;19.28;36.33;99066.94;5040342;28;20064;-73
2023/01/18 04:14:24;;;;;;;2.67;1.98;;;;;;;19.28;36.40;99068.75;5036591;28;20044;-73
2023/01/18 04:16:49;;;;;;;2.25;2.03;;;;;;;19.30;36.39;99070.16;5042963;28;20098;-73
2023/01/18 04:19:16;;;;;;;2.42;1.80;;;;;;;19.38;36.18;99068.25;5038166;28;20049;-73
2023/01/18 04:21:42;;;;;;;3.92;2.08;;;;;;;19.29;36.44;99065.91;5041058;28;20025;-73
2023/01/18 04:24:08;;;;;;;2.42;2.00;;;;;;;19.25;36.44;99059.47;5040123;28;20060;-73
2023/01/18 04:26:33;;;;;;;2.78;2.30;;;;;;;19.31;36.37;99069.13;5039743;28;20049;-73
2023/01/18 04:28:59;;;;;;;4.13;2.00;;;;;;;19.34;36.26;99067.88;5037482;28;20040;-73
2023/01/18 04:31:25;;;;;;;2.03;1.80;;;;;;;19.27;36.33;99070.59;5039192;28;20052;-75
2023/01/18 04:33:51;;;;;;;2.65;1.67;;;;;;;19.35;36.27;99063.41;5040964;28;20041;-76
2023/01/18 04:36:21;;;;;;;2.72;1.80;;;;;;;19.31;36.21;99070.97;5039836;28;20052;-74
2023/01/18 04:38:50;;;;;;;2.35;1.90;;;;;;;19.27;36.39;99072.44;5032167;28;20055;-74
2023/01/18 04:41:16;;;;;;;2.83;2.20;;;;;;;19.35;36.11;99073.97;5039656;28;20049;-74
2023/01/18 04:43:41;;;;;;;2.38;1.95;;;;;;;19.37;36.26;99082.47;5038341;28;20029;-73
2023/01/18 04:46:07;;;;;;;3.88;1.73;;;;;;;19.34;36.19;99075.81;5036242;28;20040;-75
2023/01/18 04:48:32;;;;;;;2.92;2.08;;;;;;;19.30;36.20;99077.28;5022621;28;20072;-74
2023/01/18 04:50:58;;;;;;;2.47;1.77;;;;;;;19.37;36.19;99078.00;5039712;28;20045;-74
2023/01/18 04:53:23;;;;;;;2.05;1.70;;;;;;;19.34;36.14;99086.34;5041169;28;20418;-74
2023/01/18 04:55:49;;;;;;;4.10;2.15;;;;;;;19.32;36.35;99089.22;5037557;28;20108;-74
2023/01/18 04:58:14;;;;;;;2.20;2.00;;;;;;;19.40;36.17;99088.16;5043400;28;20443;-75
2023/01/18 05:00:40;;;;;;;2.47;2.08;;;;;;;19.36;36.03;99081.66;5032453;28;20041;-75
2023/01/18 05:03:09;;;;;;;2.00;1.83;;;;;;;19.29;36.29;99086.22;5042842;28;20044;-75
2023/01/18 05:05:35;;;;;;;2.83;2.00;;;;;;;19.27;36.17;99086.44;4999882;28;20065;-75
2023/01/18 05:08:00;;;;;;;2.25;1.92;;;;;;;19.23;36.35;99092.38;5022262;28;20064;-75
2023/01/18 05:10:26;;;;;;;2.47;2.08;;;;;;;19.28;36.29;99087.25;5021261;28;20045;-75
2023/01/18 05:12:52;;;;;;;2.13;1.92;;;;;;;19.25;36.30;99092.97;5039884;28;20036;-75
2023/01/18 05:15:17;;;;;;;2.97;2.05;;;;;;;19.39;36.16;99097.09;5039239;28;20128;-75
2023/01/18 05:17:43;;;;;;;2.75;1.85;;;;;;;19.30;36.23;99095.75;5035424;28;20030;-75
2023/01/18 05:20:10;;;;;;;2.03;1.67;;;;;;;19.28;36.27;99108.34;5040775;28;20082;-75
2023/01/18 05:22:36;;;;;;;3.63;1.83;;;;;;;19.29;36.08;99104.69;5039341;28;20040;-75
2023/01/18 05:25:03;;;;;;;3.20;2.25;;;;;;;19.37;36.08;99100.94;5040346;28;20490;-75
2023/01/18 05:27:28;;;;;;;2.20;2.00;;;;;;;19.31;36.12;99114.00;5041137;28;20071;-75
2023/01/18 05:29:54;;;;;;;2.03;1.70;;;;;;;19.35;36.05;99113.56;5040497;28;21377;-75
2023/01/18 05:32:19;;;;;;;2.75;1.92;;;;;;;19.36;36.09;99115.16;5042967;28;20380;-75
2023/01/18 05:34:45;;;;;;;3.33;2.00;;;;;;;19.30;36.10;99115.03;5047448;28;20048;-75
2023/01/18 05:37:10;;;;;;;2.05;1.85;;;;;;;19.23;36.16;99116.13;5040924;28;20033;-75
2023/01/18 05:39:36;;;;;;;2.15;1.88;;;;;;;19.27;36.29;99112.03;5043780;28;20410;-75
2023/01/18 05:42:01;;;;;;;1.88;1.70;;;;;;;19.24;36.25;99129.09;5043557;28;20041;-75
2023/01/18 05:44:27;;;;;;;2.45;1.92;;;;;;;19.23;36.08;99132.75;5027136;28;20124;-75
2023/01/18 05:46:52;;;;;;;2.25;1.88;;;;;;;19.20;36.21;99121.81;5044386;28;20038;-75
2023/01/18 05:49:18;;;;;;;2.40;1.98;;;;;;;19.21;36.32;99131.34;5047992;28;20550;-75
2023/01/18 05:51:43;;;;;;;2.50;2.00;;;;;;;19.26;36.08;99126.25;5039918;28;20029;-75
2023/01/18 05:54:10;;;;;;;3.05;2.03;;;;;;;19.33;35.96;99135.69;5044625;28;20056;-75
2023/01/18 05:56:36;;;;;;;2.75;1.90;;;;;;;19.30;35.97;99144.06;5025225;28;20045;-75
2023/01/18 05:59:01;;;;;;;2.85;2.05;;;;;;;19.27;36.12;99141.03;5044752;28;20045;-75
2023/01/18 06:01:27;;;;;;;2.88;2.35;;;;;;;19.22;36.39;99140.91;5041318;28;20040;-75
2023/01/18 06:03:53;;;;;;;2.58;2.10;;;;;;;19.19;36.15;99149.22;5042846;28;20037;-75
2023/01/18 06:06:18;;;;;;;3.13;2.25;;;;;;;19.22;36.09;99146.19;5040334;28;20045;-75
2023/01/18 06:08:44;;;;;;;2.97;2.00;;;;;;;19.16;36.16;99160.22;5030669;28;20104;-75
2023/01/18 06:11:09;;;;;;;2.67;1.95;;;;;;;19.24;36.21;99160.75;5024548;28;20044;-75
2023/01/18 06:13:35;;;;;;;2.33;2.08;;;;;;;19.39;35.75;99165.72;5043948;28;20513;-75
2023/01/18 06:16:01;;;;;;;2.80;2.15;;;;;;;19.51;35.61;99163.16;5040440;28;20041;-75
2023/01/18 06:18:29;;;;;;;2.42;2.00;;;;;;;19.60;35.59;99160.06;5041182;28;20604;-75
2023/01/18 06:20:56;;;;;;;2.83;2.08;;;;;;;19.65;35.47;99167.31;5040532;28;20025;-75
2023/01/18 06:23:22;;;;;;;2.00;1.70;;;;;;;19.63;35.58;99164.09;5043817;28;20036;-75
2023/01/18 06:25:48;;;;;;;3.40;1.90;;;;;;;19.70;35.44;99164.03;5042861;28;20482;-75
2023/01/18 06:28:14;;;;;;;2.58;2.13;;;;;;;19.69;35.48;99171.13;5041052;28;20044;-75
2023/01/18 06:30:41;;;;;;;3.80;2.05;;;;;;;19.71;35.46;99165.63;5037591;28;20041;-75
2023/01/18 06:33:09;;;;;;;2.47;2.00;;;;;;;19.68;35.62;99180.09;5041939;28;20041;-75
2023/01/18 06:35:36;;;;;;;1.92;1.67;;;;;;;19.66;35.59;99178.69;5039035;28;20045;-75
2023/01/18 06:38:03;;;;;;;2.45;1.80;;;;;;;19.66;35.46;99179.50;5039007;28;20039;-75
2023/01/18 06:40:29;;;;;;;2.85;1.85;;;;;;;19.68;35.62;99174.00;5038932;28;20094;-75
2023/01/18 06:42:54;;;;;;;2.85;1.90;;;;;;;19.61;35.93;99177.53;5026300;28;20057;-75
2023/01/18 06:45:21;;;;;;;2.45;2.00;;;;;;;19.67;35.57;99186.41;5040747;28;20049;-75
2023/01/18 06:47:49;;;;;;;2.53;1.80;;;;;;;19.64;35.62;99180.75;5040966;28;20103;-75
2023/01/18 06:50:16;;;;;;;2.58;1.60;;;;;;;19.62;35.74;99188.88;5040048;28;20049;-75
2023/01/18 06:52:42;;;;;;;2.80;2.08;;;;;;;19.64;35.72;99188.66;5042404;28;20038;-75
2023/01/18 06:55:09;;;;;;;2.80;2.00;;;;;;;19.67;35.64;99189.03;5043554;28;20040;-75
2023/01/18 06:57:35;;;;;;;5.60;2.33;;;;;;;20.38;34.59;99193.75;5042902;28;20037;-75
2023/01/18 07:00:04;;;;;;;2.20;1.77;;;;;;;21.73;32.79;99195.06;5037442;28;20037;-75
2023/01/18 07:02:31;;;;;;;2.90;1.80;;;;;;;22.68;31.28;99203.38;5040712;28;20087;-75
2023/01/18 07:04:57;;;;;;;2.13;1.63;;;;;;;23.09;30.57;99204.91;5042602;28;20051;-75
2023/01/18 07:07:22;;;;;;;1.77;1.50;;;;;;;23.02;30.74;99209.59;5039527;28;20766;-75
2023/01/18 07:09:48;;;;;;;2.33;1.92;;;;;;;22.81;30.86;99208.41;5041356;28;20098;-74
2023/01/18 07:12:13;;;;;;;1.95;1.73;;;;;;;22.41;30.91;99192.50;5024693;28;20061;-75
2023/01/18 07:14:39;;;;;;;3.20;2.00;;;;;;;22.40;31.67;99224.56;5042656;28;20040;-75
2023/01/18 07:17:04;;;;;;;2.33;1.58;;;;;;;22.17;32.10;99231.53;5049171;28;20041;-75
2023/01/18 07:19:30;;;;;;;3.25;1.75;;;;;;;21.98;32.26;99228.19;5036163;28;20406;-75
2023/01/18 07:21:56;;;;;;;2.30;1.73;;;;;;;21.83;32.60;99225.22;5038539;28;20037;-75
2023/01/18 07:24:22;;;;;;;1.92;1.70;;;;;;;21.69;32.87;99229.13;5040923;28;20620;-75
2023/01/18 07:26:47;;;;;;;1.70;1.58;;;;;;;21.56;33.21;99229.38;5037834;28;20044;-75
2023/01/18 07:29:13;;;;;;;2.88;2.00;;;;;;;21.42;33.07;99234.88;5038339;28;20045;-75
2023/01/18 07:31:39;;;;;;;3.25;2.10;;;;;;;21.32;33.49;99233.81;5044250;28;20563;-75
2023/01/18 07:34:05;;;;;;;2.50;1.90;;;;;;;21.20;33.45;99219.72;5039869;28;20039;-74
2023/01/18 07:36:31;;;;;;;2.00;1.80;;;;;;;21.14;33.79;99221.41;5040248;28;20051;-75
2023/01/18 07:38:56;;;;;;;2.45;1.83;;;;;;;21.16;33.69;99242.38;5040477;28;20534;-75
2023/01/18 07:41:22;;;;;;;2.00;1.80;;;;;;;21.12;33.78;99239.38;5040770;28;20040;-74
2023/01/18 07:43:50;;;;;;;2.72;1.80;;;;;;;20.96;33.93;99242.66;5020846;28;20029;-75
2023/01/18 07:46:19;;;;;;;1.88;1.70;;;;;;;20.79;34.41;99245.94;5036699;28;20112;-75
2023/01/18 07:48:46;;;;;;;1.63;1.43;;;;;;;20.45;34.92;99247.38;5035544;28;20518;-75
2023/01/18 07:51:12;;;;;;;2.22;1.90;;;;;;;20.54;34.77;99247.88;5040520;28;20371;-75
2023/01/18 07:53:38;;;;;;;2.10;1.90;;;;;;;20.39;35.00;99242.13;5039869;28;20040;-74
2023/01/18 07:56:06;;;;;;;4.35;2.10;;;;;;;20.32;35.09;99246.72;5027015;28;20402;-75
2023/01/18 07:58:36;;;;;;;2.50;1.70;;;;;;;20.35;35.09;99254.19;5038872;28;20048;-75
2023/01/18 08:01:08;;;;;;;2.20;1.98;;;;;;;20.79;34.25;99253.06;5038379;28;20037;-75
2023/01/18 08:03:35;;;;;;;2.67;1.92;;;;;;;21.40;33.45;99255.47;5038895;28;20442;-75
2023/01/18 08:06:02;;;;;;;1.95;1.73;;;;;;;21.96;32.43;99255.97;5040596;28;20041;-75
2023/01/18 08:08:28;;;;;;;3.10;1.85;;;;;;;22.14;32.27;99257.72;5039584;28;20569;-75
2023/01/18 08:10:59;;;;;;;2.55;1.80;;;;;;;22.11;32.31;99255.53;5033978;28;20032;-75
2023/01/18 08:13:26;;;;;;;2.33;1.70;;;;;;;21.99;32.29;99258.97;5037002;28;20128;-74
2023/01/18 08:15:52;;;;;;;2.40;1.63;;;;;;;21.85;32.73;99265.53;5036685;28;20043;-74
2023/01/18 08:18:17;;;;;;;2.33;1.75;;;;;;;21.68;33.02;99265.41;5031817;28;20037;-74
2023/01/18 08:20:45;;;;;;;2.22;1.80;;;;;;;21.58;33.10;99275.78;5031124;28;20099;-74
2023/01/18 08:23:10;;;;;;;2.72;1.90;;;;;;;21.45;33.14;99269.88;5036146;28;20108;-74
2023/01/18 08:25:36;;;;;;;1.92;1.70;;;;;;;21.29;33.74;99280.06;5034246;28;21019;-74
2023/01/18 08:28:03;;;;;;;1.92;1.60;;;;;;;21.24;33.46;99292.34;5034393;28;20595;-74
2023/01/18 08:30:35;;;;;;;3.70;1.90;;;;;;;21.24;33.65;99290.56;5037932;28;20107;-73
2023/01/18 08:33:01;;;;;;;2.08;1.70;;;;;;;21.18;33.75;99290.59;5035427;28;20029;-73
2023/01/18 08:35:30;;;;;;;2.35;1.73;;;;;;;21.11;33.60;99291.50;5032956;28;20437;-74
2023/01/18 08:37:58;;;;;;;2.58;1.73;;;;;;;20.99;33.89;99301.22;5022153;28;20025;-73
2023/01/18 08:40:24;;;;;;;1.95;1.67;;;;;;;20.88;33.88;99295.91;5032673;28;20167;-74
2023/01/18 08:42:54;;;;;;;2.10;1.85;;;;;;;20.81;34.28;99311.84;5035220;28;20386;-74
2023/01/18 08:45:20;;;;;;;2.35;2.00;;;;;;;20.65;34.76;99315.91;5036117;28;20045;-73
2023/01/18 08:47:45;;;;;;;3.10;2.30;;;;;;;20.56;34.73;99313.78;5035255;28;20168;-73
2023/01/18 08:50:11;;;;;;;2.03;1.60;;;;;;;20.47;34.74;99315.91;5033930;28;20749;-73
2023/01/18 08:52:36;;;;;;;2.67;2.10;;;;;;;20.41;34.92;99322.88;5040502;28;20040;-73
2023/01/18 08:55:03;;;;;;;3.78;2.13;;;;;;;20.37;35.03;99316.38;5037875;28;20037;-73
2023/01/18 08:57:29;;;;;;;1.85;1.73;;;;;;;20.24;35.00;99303.28;5033444;28;20025;-73
2023/01/18 08:59:55;;;;;;;2.33;1.70;;;;;;;20.37;34.87;99329.59;5035184;28;20032;-74
2023/01/18 09:02:22;;;;;;;2.90;1.88;;;;;;;20.41;34.81;99330.00;5039442;28;20697;-74
2023/01/18 09:04:48;;;;;;;2.50;2.05;;;;;;;20.36;34.90;99340.41;5041474;28;20041;-74
2023/01/18 09:07:15;;;;;;;2.08;1.67;;;;;;;20.32;34.96;99337.38;5043472;28;20138;-74
2023/01/18 09:09:40;;;;;;;2.08;1.65;;;;;;;20.33;34.92;99338.19;5039468;28;20049;-74
2023/01/18 09:12:06;;;;;;;3.50;1.98;;;;;;;20.19;35.44;99346.25;5038494;28;20037;-74
2023/01/18 09:14:31;;;;;;;3.72;1.95;;;;;;;20.29;34.93;99350.22;5037643;28;20047;-73
2023/01/18 09:16:57;;;;;;;1.60;1.50;;;;;;;20.26;34.79;99350.66;5040830;28;20041;-73
2023/01/18 09:19:22;;;;;;;2.22;1.80;;;;;;;20.30;34.89;99347.38;5014803;28;20114;-73
2023/01/18 09:21:49;;;;;;;2.72;2.10;;;;;;;20.37;34.68;99357.88;5040481;28;20700;-74
2023/01/18 09:24:15;;;;;;;2.67;2.08;;;;;;;20.27;34.96;99346.97;5039001;28;20490;-74
2023/01/18 09:26:41;;;;;;;3.85;2.00;;;;;;;20.15;35.02;99357.47;5042999;28;20044;-73
2023/01/18 09:29:06;;;;;;;4.30;2.50;;;;;;;20.24;34.90;99350.88;5034600;28;20045;-74
2023/01/18 09:31:32;;;;;;;1.70;1.60;;;;;;;20.35;34.79;99367.88;5036566;28;20383;-73
2023/01/18 09:33:57;;;;;;;2.55;2.10;;;;;;;20.30;34.79;99368.53;5037040;28;20037;-74
2023/01/18 09:36:25;;;;;;;3.30;1.98;;;;;;;20.20;34.98;99370.84;5040339;28;20049;-74
2023/01/18 09:38:51;;;;;;;2.67;2.03;;;;;;;20.44;34.54;99363.94;5035240;28;20532;-73
2023/01/18 09:41:28;;;;;;;2.05;1.58;;;;;;;20.83;33.65;99373.31;5040432;28;20052;-73
2023/01/18 09:43:59;;;;;;;2.78;1.90;;;;;;;21.36;33.06;99367.34;5035879;28;20053;-74
2023/01/18 09:46:25;;;;;;;3.35;1.63;;;;;;;21.51;32.60;99369.59;5037404;28;20056;-73
2023/01/18 09:48:59;;;;;;;2.10;1.90;;;;;;;21.54;32.40;99367.28;5036017;28;20715;-73
2023/01/18 09:52:18;;;;;;;2.88;2.13;;;;;;;21.37;32.89;99374.28;5038256;28;20157;-73
2023/01/18 09:54:52;;;;;;;2.80;1.88;;;;;;;21.20;33.12;99382.00;5010441;28;20079;-74
2023/01/18 09:57:36;;;;;;;2.38;1.90;;;;;;;21.12;33.09;99375.16;5038188;28;20045;-73
2023/01/18 10:00:12;;;;;;;2.97;2.03;;;;;;;21.02;33.67;99379.41;5036492;28;20542;-73
2023/01/18 10:02:38;;;;;;;3.25;1.90;;;;;;;21.03;33.19;99370.41;5041258;28;20041;-74
2023/01/18 10:05:11;;;;;;;3.85;1.90;;;;;;;20.99;33.40;99385.09;5035432;28;20091;-74
2023/01/18 10:07:53;;;;;;;3.63;2.35;;;;;;;20.84;33.59;99382.84;5034762;28;20495;-72
2023/01/18 10:10:19;;;;;;;2.10;1.90;;;;;;;20.79;33.76;99385.34;5037334;28;20045;-73
2023/01/18 10:13:25;;;;;;;2.45;2.00;;;;;;;20.62;33.88;99387.75;5033460;28;20094;-72
2023/01/18 10:15:50;;;;;;;2.30;1.92;;;;;;;20.53;34.06;99383.78;5026993;28;20115;-72
2023/01/18 10:18:17;;;;;;;3.28;2.00;;;;;;;20.40;34.39;99389.97;5041145;28;20520;-71
2023/01/18 10:20:57;;;;;;;3.53;2.28;;;;;;;21.02;33.51;99382.84;4979242;28;20495;-71
2023/01/18 10:23:25;;;;;;;2.90;2.40;;;;;;;21.63;32.40;99384.50;5036542;28;20037;-69
2023/01/18 10:26:00;;;;;;;3.38;2.20;;;;;;;21.99;31.77;99380.09;5037576;28;20051;-69
2023/01/18 10:28:33;;;;;;;3.30;2.05;;;;;;;22.12;32.16;99385.22;5024265;28;20048;-68
2023/01/18 10:31:45;;;;;;;3.80;2.08;;;;;;;22.34;32.18;99385.44;5024199;28;20561;-69
2023/01/18 10:34:20;;;;;;;2.00;1.80;;;;;;;22.30;31.92;99379.81;4978374;28;20050;-70
2023/01/18 10:36:57;;;;;;;3.90;1.98;;;;;;;22.20;32.09;99384.84;4962492;28;20049;-72
2023/01/18 10:39:26;;;;;;;3.35;2.13;;;;;;;22.18;32.32;99384.28;5001996;28;20491;-69
2023/01/18 10:41:57;;;;;;;3.30;2.03;;;;;;;22.14;32.18;99383.13;5040284;28;20590;-67
2023/01/18 10:44:23;;;;;;;2.58;2.00;;;;;;;22.12;32.72;99389.72;5042109;28;20070;-69
2023/01/18 10:46:48;;;;;;;2.25;1.90;;;;;;;22.03;32.75;99383.88;5039651;28;20375;-70
2023/01/18 10:49:39;;;;;;;2.88;2.10;;;;;;;22.05;32.95;99378.38;5044096;28;20069;-69
2023/01/18 10:52:26;;;;;;;3.40;2.17;;;;;;;22.05;32.83;99383.69;5039563;28;20037;-69
2023/01/18 10:55:00;;;;;;;2.38;1.90;;;;;;;22.01;32.82;99380.66;5006870;28;20040;-71
2023/01/18 10:57:33;;;;;;;2.78;2.03;;;;;;;21.74;33.01;99387.41;5037317;28;20021;-71
2023/01/18 10:59:59;;;;;;;2.88;1.90;;;;;;;21.65;33.12;99387.72;5036029;28;20037;-72
2023/01/18 11:02:28;;;;;;;2.63;2.20;;;;;;;21.56;33.35;99377.69;5036011;28;20083;-71
2023/01/18 11:04:58;;;;;;;4.40;1.95;;;;;;;21.56;33.35;99386.44;5037381;28;20119;-71
2023/01/18 11:07:26;;;;;;;2.40;2.00;;;;;;;21.50;33.23;99379.38;5037140;28;20065;-71
2023/01/18 11:09:54;;;;;;;2.78;1.98;;;;;;;21.45;33.59;99376.59;5027208;28;20021;-72
2023/01/18 11:12:40;;;;;;;3.03;2.17;;;;;;;21.38;33.34;99384.66;5024931;28;20098;-71
2023/01/18 11:15:14;;;;;;;2.35;2.00;;;;;;;21.37;33.43;99387.53;5040426;28;20039;-71
2023/01/18 11:17:43;;;;;;;3.55;2.40;;;;;;;21.36;33.39;99383.25;5037644;28;20033;-70
2023/01/18 11:20:15;;;;;;;2.60;2.08;;;;;;;21.33;33.20;99381.84;5045118;28;20040;-70
2023/01/18 11:23:02;;;;;;;2.22;2.00;;;;;;;21.32;33.19;99377.59;5040447;28;20026;-70
2023/01/18 11:25:37;;;;;;;3.92;2.22;;;;;;;21.30;33.33;99363.78;5038574;28;20032;-71
2023/01/18 11:28:12;;;;;;;3.08;2.35;;;;;;;21.28;33.40;99375.63;5005078;28;20541;-71
2023/01/18 11:30:50;;;;;;;2.55;1.92;;;;;;;21.24;33.41;99375.25;5040618;28;20056;-72
2023/01/18 11:33:19;;;;;;;3.38;2.15;;;;;;;21.22;33.27;99363.25;5035392;28;20041;-71
2023/01/18 11:35:44;;;;;;;2.97;2.03;;;;;;;21.13;33.53;99357.44;5020342;28;20033;-72
2023/01/18 11:38:17;;;;;;;2.47;2.28;;;;;;;21.18;33.27;99365.53;5039028;28;20032;-71
2023/01/18 11:40:44;;;;;;;2.50;2.10;;;;;;;21.17;32.91;99365.75;5038912;28;20029;-71
2023/01/18 11:43:24;;;;;;;2.58;2.00;;;;;;;21.15;33.14;99367.81;5011551;28;20029;-71
2023/01/18 11:46:11;;;;;;;3.40;2.22;;;;;;;21.10;32.92;99357.91;5039704;28;20061;-71
2023/01/18 11:48:38;;;;;;;2.53;2.20;;;;;;;21.11;32.87;99362.16;5036500;28;21038;-71
2023/01/18 11:51:28;;;;;;;3.28;2.35;;;;;;;21.09;33.10;99366.88;5033759;28;20156;-71
2023/01/18 11:53:54;;;;;;;;;;;;;;;21.07;33.06;99361.00;5033390;28;20052;-71
2023/01/18 11:56:29;;;;;;;2.67;2.13;;;;;;;21.08;32.82;99362.63;5041269;28;19917;-71
2023/01/18 11:58:55;;;;;;;2.72;2.30;;;;;;;21.04;33.09;99366.75;5018488;28;20033;-71
2023/01/18 12:01:33;;;;;;;3.15;2.30;;;;;;;21.04;33.06;99366.75;5023237;28;20028;-72
2023/01/18 12:04:18;;;;;;;4.55;2.10;;;;;;;21.02;32.97;99361.69;5034627;28;20033;-72
2023/01/18 12:07:06;;;;;;;4.07;2.30;;;;;;;21.01;32.94;99361.91;5039622;28;20749;-71
2023/01/18 12:09:56;;;;;;;3.97;2.28;;;;;;;20.98;32.79;99362.31;5039163;28;20053;-71
2023/01/18 12:12:22;;;;;;;2.63;2.05;;;;;;;21.02;32.89;99361.69;5018174;28;20056;-71
2023/01/18 12:14:58;;;;;;;2.83;1.67;;;;;;;21.00;32.97;99366.34;5019784;28;20037;-70
2023/01/18 12:17:47;;;;;;;3.10;1.90;;;;;;;21.01;32.88;99361.91;5021815;28;20033;-71